createdAt,value
2017-09-30T00:02:21.673Z,98013.84
2017-09-30T00:04:51.129Z,98006.60
2017-09-30T00:07:21.105Z,98012.04
2017-09-30T00:09:49.850Z,98007.25
2017-09-30T00:12:18.822Z,98015.08
2017-09-30T00:14:47.798Z,98006.77
2017-09-30T00:17:15.574Z,98004.05
2017-09-30T00:19:43.252Z,98008.53
2017-09-30T00:22:11.432Z,98004.45
2017-09-30T00:24:39.130Z,98010.64
2017-09-30T00:27:06.708Z,98002.02
2017-09-30T00:29:34.231Z,98005.84
2017-09-30T00:32:03.162Z,97996.17
2017-09-30T00:34:31.502Z,98006.66
2017-09-30T00:37:02.155Z,97999.13
2017-09-30T00:39:30.103Z,97998.44
2017-09-30T00:41:57.767Z,97993.41
2017-09-30T00:44:25.842Z,97988.94
2017-09-30T00:46:53.685Z,97988.63
2017-09-30T00:49:21.436Z,97985.91
2017-09-30T00:51:49.861Z,97981.44
2017-09-30T00:54:17.538Z,97981.25
2017-09-30T00:56:45.469Z,97982.15
2017-09-30T00:59:15.147Z,97973.45
2017-09-30T01:01:43.804Z,97972.48
2017-09-30T01:04:11.323Z,97973.95
2017-09-30T01:06:38.883Z,97974.74
2017-09-30T01:09:06.440Z,97973.63
2017-09-30T01:11:34.001Z,97973.69
2017-09-30T01:14:01.788Z,97970.89
2017-09-30T01:16:29.891Z,97973.45
2017-09-30T01:18:57.429Z,97966.50
2017-09-30T01:21:26.201Z,97965.75
2017-09-30T01:23:53.788Z,97959.88
2017-09-30T01:26:21.335Z,97958.76
2017-09-30T01:28:48.876Z,97964.27
2017-09-30T01:31:16.445Z,97963.30
2017-09-30T01:33:44.056Z,97970.09
2017-09-30T01:36:11.651Z,97967.06
2017-09-30T01:38:39.254Z,97959.80
2017-09-30T01:41:06.849Z,97961.31
2017-09-30T01:43:34.881Z,97959.88
2017-09-30T01:46:02.851Z,97957.72
2017-09-30T01:48:30.588Z,97956.09
2017-09-30T01:50:58.927Z,97954.41
2017-09-30T01:53:26.518Z,97957.29
2017-09-30T01:55:54.565Z,97959.00
2017-09-30T01:58:22.345Z,97963.47
2017-09-30T02:00:50.039Z,97960.99
2017-09-30T02:03:17.633Z,97958.52
2017-09-30T02:05:45.230Z,97954.77
2017-09-30T02:08:13.267Z,97951.41
2017-09-30T02:10:41.019Z,97946.62
2017-09-30T02:13:09.354Z,97954.36
2017-09-30T02:15:38.520Z,97952.07
2017-09-30T02:18:06.117Z,97951.35
2017-09-30T02:20:33.677Z,97952.70
2017-09-30T02:23:01.732Z,97947.03
2017-09-30T02:25:30.614Z,97947.27
2017-09-30T02:27:58.376Z,97946.39
2017-09-30T02:30:26.177Z,97939.61
2017-09-30T02:32:54.772Z,97934.50
2017-09-30T02:35:22.657Z,97930.03
2017-09-30T02:37:50.434Z,97909.39
2017-09-30T02:40:19.379Z,97921.66
2017-09-30T02:42:47.933Z,97922.61
2017-09-30T02:45:16.128Z,97921.81
2017-09-30T02:47:44.923Z,97916.97
2017-09-30T02:50:13.701Z,97915.27
2017-09-30T02:52:41.318Z,97909.55
2017-09-30T02:55:09.196Z,97908.42
2017-09-30T02:57:36.990Z,97904.21
2017-09-30T03:00:06.933Z,97900.78
2017-09-30T03:02:35.686Z,97901.96
2017-09-30T03:05:03.379Z,97897.94
2017-09-30T03:07:31.069Z,97898.63
2017-09-30T03:09:58.696Z,97899.98
2017-09-30T03:12:31.610Z,97898.80
2017-09-30T03:15:00.311Z,97893.34
2017-09-30T03:17:29.394Z,97893.52
2017-09-30T03:19:57.565Z,97890.88
2017-09-30T03:22:25.603Z,97888.97
2017-09-30T03:24:53.521Z,97883.47
2017-09-30T03:27:21.270Z,97878.89
2017-09-30T03:29:49.295Z,97886.32
2017-09-30T03:32:17.250Z,97884.03
2017-09-30T03:34:44.832Z,97876.69
2017-09-30T03:37:12.384Z,97876.19
2017-09-30T03:39:39.906Z,97881.77
2017-09-30T03:42:07.485Z,97881.37
2017-09-30T03:44:35.658Z,97877.25
2017-09-30T03:47:04.391Z,97875.78
2017-09-30T03:49:32.174Z,97876.91
2017-09-30T03:51:59.787Z,97877.56
2017-09-30T03:54:27.406Z,97886.09
2017-09-30T03:56:54.983Z,97870.30
2017-09-30T03:59:22.570Z,97874.21
2017-09-30T04:01:50.159Z,97878.28
2017-09-30T04:04:18.080Z,97880.11
2017-09-30T04:06:46.383Z,97869.58
2017-09-30T04:09:15.368Z,97883.30
2017-09-30T04:11:48.107Z,97883.00
2017-09-30T04:14:15.625Z,97879.81
2017-09-30T04:19:17.899Z,97880.03
2017-09-30T04:21:46.203Z,97877.64
2017-09-30T04:24:14.708Z,97863.67
2017-09-30T04:26:47.449Z,97863.76
2017-09-30T04:29:18.507Z,97860.56
2017-09-30T04:31:52.984Z,97861.45
2017-09-30T04:34:35.234Z,97862.48
2017-09-30T04:39:40.954Z,97850.83
2017-09-30T04:45:40.868Z,97842.67
2017-09-30T04:48:08.408Z,97836.16
2017-09-30T04:50:35.998Z,97838.22
2017-09-30T04:53:03.545Z,97843.23
2017-09-30T04:55:31.319Z,97838.05
2017-09-30T04:57:58.864Z,97835.50
2017-09-30T05:00:28.631Z,97832.23
2017-09-30T05:02:57.407Z,97832.16
2017-09-30T05:05:25.087Z,97835.34
2017-09-30T05:07:54.229Z,97834.95
2017-09-30T05:10:21.710Z,97834.14
2017-09-30T05:12:50.578Z,97843.23
2017-09-30T05:15:18.714Z,97845.07
2017-09-30T05:17:46.246Z,97853.03
2017-09-30T05:20:13.891Z,97854.39
2017-09-30T05:22:41.387Z,97854.08
2017-09-30T05:25:09.986Z,97851.45
2017-09-30T05:27:37.692Z,97843.89
2017-09-30T05:30:06.757Z,97841.02
2017-09-30T05:32:34.286Z,97837.09
2017-09-30T05:35:01.818Z,97841.24
2017-09-30T05:37:29.316Z,97841.25
2017-09-30T05:39:56.825Z,97845.55
2017-09-30T05:42:24.384Z,97837.27
2017-09-30T05:44:51.919Z,97835.69
2017-09-30T05:47:19.464Z,97846.78
2017-09-30T05:49:48.334Z,97845.99
2017-09-30T05:52:15.980Z,97843.25
2017-09-30T05:54:44.632Z,97842.69
2017-09-30T05:57:12.228Z,97846.61
2017-09-30T05:59:39.789Z,97850.28
2017-09-30T06:02:07.422Z,97850.77
2017-09-30T06:04:35.382Z,97852.04
2017-09-30T06:07:03.096Z,97850.17
2017-09-30T06:09:30.671Z,97847.97
2017-09-30T06:11:58.161Z,97852.11
2017-09-30T06:14:25.792Z,97849.53
2017-09-30T06:16:53.362Z,97853.84
2017-09-30T06:19:21.005Z,97851.93
2017-09-30T06:21:48.588Z,97851.05
2017-09-30T06:24:16.120Z,97849.58
2017-09-30T06:26:43.691Z,97850.93
2017-09-30T06:29:11.256Z,97844.19
2017-09-30T06:31:38.834Z,97840.03
2017-09-30T06:34:13.651Z,97834.59
2017-09-30T06:36:53.025Z,97831.41
2017-09-30T06:39:25.853Z,97832.56
2017-09-30T06:41:55.873Z,97816.34
2017-09-30T06:44:24.976Z,97824.38
2017-09-30T06:46:52.615Z,97818.94
2017-09-30T06:52:04.668Z,97817.89
2017-09-30T06:54:32.237Z,97819.24
2017-09-30T06:56:59.819Z,97820.47
2017-09-30T06:59:27.386Z,97818.05
2017-09-30T07:01:55.067Z,97822.30
2017-09-30T07:04:22.628Z,97820.22
2017-09-30T07:07:14.829Z,97820.88
2017-09-30T07:09:52.385Z,97816.17
2017-09-30T07:12:22.271Z,97819.08
2017-09-30T07:14:52.055Z,97821.87
2017-09-30T07:17:19.646Z,97818.28
2017-09-30T07:19:47.355Z,97815.53
2017-09-30T07:22:14.937Z,97814.55
2017-09-30T07:24:42.468Z,97816.14
2017-09-30T07:27:09.990Z,97806.18
2017-09-30T07:29:46.664Z,97810.89
2017-09-30T07:32:14.280Z,97798.90
2017-09-30T07:34:47.514Z,97805.59
2017-09-30T07:37:15.018Z,97804.95
2017-09-30T07:39:42.568Z,97800.23
2017-09-30T07:42:10.151Z,97796.94
2017-09-30T07:44:37.664Z,97788.88
2017-09-30T07:47:05.189Z,97785.69
2017-09-30T07:49:32.916Z,97783.33
2017-09-30T07:52:01.957Z,97784.80
2017-09-30T07:54:29.913Z,97783.80
2017-09-30T07:57:10.493Z,97785.83
2017-09-30T07:59:38.006Z,97788.56
2017-09-30T08:02:15.772Z,97787.88
2017-09-30T08:04:43.258Z,97790.23
2017-09-30T08:07:12.534Z,97788.20
2017-09-30T08:09:40.121Z,97786.05
2017-09-30T08:12:07.714Z,97785.89
2017-09-30T08:14:35.216Z,97777.00
2017-09-30T08:17:03.170Z,97790.26
2017-09-30T08:19:30.672Z,97784.00
2017-09-30T08:21:58.159Z,97786.31
2017-09-30T08:24:25.775Z,97780.71
2017-09-30T08:26:53.312Z,97775.70
2017-09-30T08:29:20.849Z,97779.92
2017-09-30T08:31:48.360Z,97774.30
2017-09-30T08:34:16.092Z,97768.64
2017-09-30T08:36:43.656Z,97762.74
2017-09-30T08:39:11.199Z,97754.45
2017-09-30T08:41:46.915Z,97755.27
2017-09-30T08:44:15.233Z,97757.61
2017-09-30T08:46:43.905Z,97747.91
2017-09-30T08:49:11.929Z,97742.27
2017-09-30T08:51:39.444Z,97746.25
2017-09-30T08:54:07.009Z,97746.36
2017-09-30T08:56:34.559Z,97747.67
2017-09-30T08:59:02.236Z,97751.33
2017-09-30T09:01:29.779Z,97745.83
2017-09-30T09:03:57.294Z,97747.70
2017-09-30T09:06:24.966Z,97740.95
2017-09-30T09:08:52.695Z,97738.94
2017-09-30T09:11:20.271Z,97740.17
2017-09-30T09:16:21.535Z,97736.67
2017-09-30T09:18:49.046Z,97730.22
2017-09-30T09:21:16.915Z,97736.40
2017-09-30T09:23:44.502Z,97725.94
2017-09-30T09:26:12.447Z,97722.95
2017-09-30T09:28:40.090Z,97720.98
2017-09-30T09:31:09.168Z,97730.79
2017-09-30T09:33:36.761Z,97723.50
2017-09-30T09:36:05.221Z,97719.27
2017-09-30T09:38:32.832Z,97719.80
2017-09-30T09:41:00.454Z,97716.61
2017-09-30T09:43:27.935Z,97714.26
2017-09-30T09:45:55.448Z,97707.15
2017-09-30T09:48:23.032Z,97705.80
2017-09-30T09:50:50.569Z,97706.45
2017-09-30T09:53:18.203Z,97698.67
2017-09-30T09:55:45.736Z,97693.09
2017-09-30T09:58:13.413Z,97689.55
2017-09-30T10:00:40.929Z,97680.78
2017-09-30T10:03:08.606Z,97675.95
2017-09-30T10:05:38.682Z,97673.17
2017-09-30T10:08:06.830Z,97666.59
2017-09-30T10:10:34.660Z,97656.97
2017-09-30T10:13:04.033Z,97657.19
2017-09-30T10:15:31.560Z,97653.92
2017-09-30T10:17:59.107Z,97653.70
2017-09-30T10:20:27.732Z,97657.55
2017-09-30T10:22:55.260Z,97654.03
2017-09-30T10:25:23.228Z,97655.06
2017-09-30T10:27:50.825Z,97651.77
2017-09-30T10:30:18.314Z,97649.50
2017-09-30T10:32:46.070Z,97648.41
2017-09-30T10:35:13.596Z,97644.20
2017-09-30T10:37:41.965Z,97639.89
2017-09-30T10:40:09.577Z,97636.91
2017-09-30T10:42:37.202Z,97626.59
2017-09-30T10:45:04.867Z,97624.83
2017-09-30T10:47:32.542Z,97627.59
2017-09-30T10:50:00.082Z,97628.85
2017-09-30T10:52:27.595Z,97622.64
2017-09-30T10:54:55.148Z,97615.52
2017-09-30T10:57:26.130Z,97617.12
2017-09-30T10:59:53.628Z,97615.25
2017-09-30T11:02:21.139Z,97609.52
2017-09-30T11:04:48.651Z,97612.30
2017-09-30T11:07:16.210Z,97610.31
2017-09-30T11:09:43.753Z,97610.33
2017-09-30T11:12:11.212Z,97601.71
2017-09-30T11:14:38.781Z,97595.97
2017-09-30T11:17:06.277Z,97597.53
2017-09-30T11:19:34.862Z,97593.59
2017-09-30T11:22:02.379Z,97597.78
2017-09-30T11:24:29.940Z,97593.52
2017-09-30T11:26:57.771Z,97587.61
2017-09-30T11:29:25.585Z,97594.63
2017-09-30T11:31:57.164Z,97589.70
2017-09-30T11:34:24.882Z,97587.48
2017-09-30T11:36:52.477Z,97584.53
2017-09-30T11:39:20.289Z,97583.20
2017-09-30T11:41:52.652Z,97578.93
2017-09-30T11:44:28.307Z,97563.52
2017-09-30T11:46:55.969Z,97572.47
2017-09-30T11:49:25.985Z,97565.26
2017-09-30T11:51:53.542Z,97564.55
2017-09-30T11:54:21.058Z,97555.92
2017-09-30T11:57:01.277Z,97545.02
2017-09-30T11:59:28.871Z,97548.27
2017-09-30T12:02:00.678Z,97542.62
2017-09-30T12:04:31.686Z,97535.52
2017-09-30T12:06:59.283Z,97537.41
2017-09-30T12:09:27.200Z,97539.61
2017-09-30T12:11:54.845Z,97533.28
2017-09-30T12:14:23.895Z,97533.40
2017-09-30T12:16:51.575Z,97526.09
2017-09-30T12:19:19.216Z,97522.28
2017-09-30T12:24:45.219Z,97517.23
2017-09-30T12:27:12.807Z,97510.30
2017-09-30T12:29:41.824Z,97507.38
2017-09-30T12:32:10.334Z,97504.47
2017-09-30T12:34:38.017Z,97503.81
2017-09-30T12:37:06.529Z,97504.38
2017-09-30T12:39:34.229Z,97511.23
2017-09-30T12:42:02.252Z,97504.76
2017-09-30T12:44:30.289Z,97507.46
2017-09-30T12:46:59.221Z,97503.84
2017-09-30T12:49:29.475Z,97493.27
2017-09-30T12:51:57.137Z,97487.81
2017-09-30T12:54:25.319Z,97490.30
2017-09-30T12:56:55.563Z,97491.42
2017-09-30T12:59:23.282Z,97496.48
2017-09-30T13:01:50.824Z,97496.73
2017-09-30T13:04:18.326Z,97489.11
2017-09-30T13:06:45.855Z,97490.53
2017-09-30T13:09:13.437Z,97497.92
2017-09-30T13:11:40.956Z,97498.77
2017-09-30T13:14:08.483Z,97499.89
2017-09-30T13:16:36.213Z,97504.19
2017-09-30T13:19:03.807Z,97499.59
2017-09-30T13:21:31.357Z,97507.73
2017-09-30T13:23:58.900Z,97492.52
2017-09-30T13:26:26.421Z,97493.32
2017-09-30T13:28:53.991Z,97488.81
2017-09-30T13:31:21.585Z,97489.30
2017-09-30T13:33:49.093Z,97488.20
2017-09-30T13:36:16.628Z,97487.93
2017-09-30T13:38:44.139Z,97486.13
2017-09-30T13:41:11.676Z,97497.92
2017-09-30T13:43:40.259Z,97495.63
2017-09-30T13:46:08.313Z,97497.56
2017-09-30T13:48:35.829Z,97492.23
2017-09-30T13:51:03.328Z,97496.67
2017-09-30T13:53:30.972Z,97496.12
2017-09-30T13:56:00.490Z,97508.47
2017-09-30T13:58:28.179Z,97509.31
2017-09-30T14:00:55.720Z,97515.60
2017-09-30T14:03:23.950Z,97520.71
2017-09-30T14:05:51.489Z,97518.63
2017-09-30T14:08:19.004Z,97509.47
2017-09-30T14:10:46.604Z,97514.73
2017-09-30T14:13:14.284Z,97512.48
2017-09-30T14:15:42.071Z,97509.41
2017-09-30T14:18:09.831Z,97514.44
2017-09-30T14:23:16.971Z,97522.19
2017-09-30T14:25:44.468Z,97528.64
2017-09-30T14:28:12.037Z,97527.38
2017-09-30T14:30:41.453Z,97534.50
2017-09-30T14:33:09.012Z,97525.44
2017-09-30T14:35:36.536Z,97541.59
2017-09-30T14:38:04.094Z,97545.88
2017-09-30T14:40:31.649Z,97547.66
2017-09-30T14:42:59.204Z,97552.68
2017-09-30T14:45:28.687Z,97552.39
2017-09-30T14:47:56.459Z,97555.36
2017-09-30T14:50:23.977Z,97545.31
2017-09-30T14:58:12.926Z,97549.76
2017-09-30T15:00:41.053Z,97551.22
2017-09-30T15:03:08.687Z,97561.83
2017-09-30T15:08:11.409Z,97566.63
2017-09-30T15:10:38.919Z,97582.42
2017-09-30T15:13:06.504Z,97590.00
2017-09-30T15:15:34.255Z,97580.44
2017-09-30T15:18:01.854Z,97579.03
2017-09-30T15:20:29.363Z,97573.30
2017-09-30T15:22:56.917Z,97585.81
2017-09-30T15:25:24.517Z,97595.81
2017-09-30T15:27:52.056Z,97604.52
2017-09-30T15:30:19.610Z,97603.19
2017-09-30T15:32:47.213Z,97607.80
2017-09-30T15:35:14.750Z,97618.58
2017-09-30T15:37:42.295Z,97619.84
2017-09-30T15:43:17.717Z,97630.52
2017-09-30T15:45:47.244Z,97635.17
2017-09-30T15:48:15.016Z,97621.88
2017-09-30T15:50:42.727Z,97639.50
2017-09-30T15:53:11.394Z,97635.59
2017-09-30T15:55:39.047Z,97633.47
2017-09-30T15:58:06.559Z,97635.23
2017-09-30T16:00:34.027Z,97647.95
2017-09-30T16:06:56.882Z,97670.30
2017-09-30T16:09:24.559Z,97681.46
2017-09-30T16:11:58.567Z,97687.81
2017-09-30T16:17:01.840Z,97686.86
2017-09-30T16:19:29.681Z,97683.11
2017-09-30T16:21:57.252Z,97691.92
2017-09-30T16:24:24.762Z,97699.32
2017-09-30T16:27:12.052Z,97703.43
